Time;durP1;ratioP1;P1;durP2;ratioP2;P2;SDS_P1;SDS_P2;PMS_P1;PMS_P2;Temp;Humidity;BMP_temperature;BMP_pressure;BME280_temperature;BME280_humidity;BME280_pressure;Samples;Min_cycle;Max_cycle;Signal;HPM_P1;HPM_P2
2021/12/24 00:02:14;;;;;;;149.77;38.22;;;6.00;99.90;;;;;;6210982;22;20015;-90
2021/12/24 00:04:39;;;;;;;137.75;35.47;;;6.10;99.90;;;;;;6212192;22;20027;-90
2021/12/24 00:07:05;;;;;;;127.28;34.80;;;6.10;99.90;;;;;;6212025;22;20546;-90
2021/12/24 00:09:33;;;;;;;123.97;33.25;;;6.10;99.90;;;;;;6213522;22;20015;-90
2021/12/24 00:12:02;;;;;;;127.45;34.40;;;6.20;99.90;;;;;;6211678;22;20098;-90
2021/12/24 00:14:29;;;;;;;135.63;32.88;;;6.20;99.90;;;;;;6215500;22;20087;-90
2021/12/24 00:16:59;;;;;;;118.53;32.30;;;6.20;99.90;;;;;;6212199;22;20410;-89
2021/12/24 00:19:48;;;;;;;114.25;32.20;;;6.20;99.90;;;;;;6212828;22;20016;-89
2021/12/24 00:35:48;;;;;;;79.70;24.17;;;6.40;99.90;;;;;;6244681;22;19915;-90
2021/12/24 00:38:13;;;;;;;90.32;27.40;;;6.50;99.90;;;;;;6244898;22;20099;-90
2021/12/24 00:40:42;;;;;;;91.22;26.80;;;6.50;99.90;;;;;;6243015;22;20019;-90
2021/12/24 00:43:09;;;;;;;84.50;26.70;;;6.50;99.90;;;;;;6236747;22;20019;-90
2021/12/24 00:45:38;;;;;;;78.75;24.40;;;6.50;99.90;;;;;;6236838;22;20058;-89
2021/12/24 00:48:05;;;;;;;97.43;27.58;;;6.50;99.90;;;;;;6236614;22;20024;-89
2021/12/24 00:50:46;;;;;;;78.60;24.90;;;6.50;99.90;;;;;;6236337;22;20020;-90
2021/12/24 00:55:55;;;;;;;;;;;6.60;99.90;;;;;;6236583;22;20023;-90
2021/12/24 00:58:21;;;;;;;67.95;22.35;;;6.60;99.90;;;;;;6210723;22;19991;-90
2021/12/24 01:00:46;;;;;;;72.93;23.92;;;6.70;99.90;;;;;;6235688;22;20074;-87
2021/12/24 01:03:12;;;;;;;67.40;22.83;;;6.60;99.90;;;;;;6211748;22;20527;-89
2021/12/24 01:05:38;;;;;;;53.22;19.83;;;6.60;99.90;;;;;;6210225;22;20016;-89
2021/12/24 01:08:06;;;;;;;52.88;20.13;;;6.70;99.90;;;;;;6238008;22;20098;-89
2021/12/24 01:10:35;;;;;;;56.63;20.88;;;6.70;99.90;;;;;;6236889;22;20024;-90
2021/12/24 01:13:02;;;;;;;54.65;20.02;;;6.70;99.90;;;;;;6235297;22;20016;-90
2021/12/24 01:15:29;;;;;;;61.28;22.77;;;6.70;99.90;;;;;;6239218;22;20490;-90
2021/12/24 01:20:45;;;;;;;51.47;19.60;;;6.70;99.90;;;;;;6244537;22;20479;-90
2021/12/24 01:25:47;;;;;;;51.15;17.92;;;6.80;99.90;;;;;;6247073;22;20023;-90
2021/12/24 01:40:07;;;;;;;43.90;16.23;;;6.90;99.90;;;;;;6237782;22;20062;-90
2021/12/24 01:44:43;;;;;;;;;;;7.00;99.90;;;;;;6240187;22;20019;-91
2021/12/24 01:47:09;;;;;;;37.97;16.00;;;7.00;99.90;;;;;;6215074;22;19923;-91
2021/12/24 01:49:35;;;;;;;40.10;15.95;;;7.00;99.90;;;;;;6222194;22;20023;-91
2021/12/24 01:52:04;;;;;;;40.03;17.17;;;7.00;99.90;;;;;;6245778;22;20103;-90
2021/12/24 01:54:30;;;;;;;37.80;15.55;;;7.00;99.90;;;;;;6221074;22;20098;-90
2021/12/24 01:56:55;;;;;;;36.10;15.63;;;7.00;99.90;;;;;;6215572;22;20051;-90
2021/12/24 01:59:21;;;;;;;39.40;15.43;;;7.00;99.90;;;;;;6213639;22;20103;-91
2021/12/24 02:01:49;;;;;;;33.28;15.05;;;7.10;99.90;;;;;;6213727;22;20639;-90
2021/12/24 02:04:15;;;;;;;30.70;13.77;;;7.10;99.90;;;;;;6237827;22;20082;-90
2021/12/24 02:06:41;;;;;;;34.97;14.65;;;7.10;99.90;;;;;;6239542;22;20020;-90
2021/12/24 02:09:08;;;;;;;29.05;13.73;;;7.10;99.90;;;;;;6221469;22;20019;-90
2021/12/24 02:11:37;;;;;;;38.53;15.70;;;7.10;99.90;;;;;;6245735;22;20051;-90
2021/12/24 02:14:08;;;;;;;31.75;13.27;;;7.10;99.90;;;;;;6221015;22;20012;-90
2021/12/24 02:16:53;;;;;;;36.55;14.38;;;7.20;99.90;;;;;;6232992;22;20022;-89
2021/12/24 02:30:15;;;;;;;;;;;7.30;99.90;;;;;;6238205;22;20020;-90
2021/12/24 02:32:42;;;;;;;24.10;12.05;;;7.30;99.90;;;;;;6211468;22;19915;-89
2021/12/24 02:35:09;;;;;;;24.25;11.38;;;7.30;99.90;;;;;;6236545;22;20571;-89
2021/12/24 02:37:35;;;;;;;26.80;12.68;;;7.40;99.90;;;;;;6237786;22;20027;-90
2021/12/24 02:40:01;;;;;;;23.55;11.00;;;7.40;99.90;;;;;;6237948;22;20066;-90
2021/12/24 02:42:26;;;;;;;22.80;11.25;;;7.50;99.90;;;;;;6240973;22;20015;-90
2021/12/24 02:44:52;;;;;;;21.88;10.43;;;7.50;99.90;;;;;;6219262;22;20469;-90
2021/12/24 02:55:03;;;;;;;26.75;12.20;;;7.60;99.90;;;;;;6237521;22;20172;-90
2021/12/24 02:57:31;;;;;;;24.38;11.57;;;7.70;99.90;;;;;;6238133;22;20094;-90
2021/12/24 03:00:06;;;;;;;27.08;13.60;;;7.80;99.90;;;;;;6213316;22;20038;-90
2021/12/24 03:02:32;;;;;;;32.08;13.27;;;7.70;99.90;;;;;;6212644;22;20015;-90
2021/12/24 03:04:58;;;;;;;32.35;13.60;;;7.80;99.90;;;;;;6237607;22;20541;-91
2021/12/24 03:07:23;;;;;;;30.02;13.30;;;7.70;99.90;;;;;;6237352;22;20012;-90
2021/12/24 03:09:49;;;;;;;32.78;13.05;;;7.80;99.90;;;;;;6213732;22;20525;-91
2021/12/24 03:12:15;;;;;;;32.97;13.50;;;7.80;99.90;;;;;;6220557;22;20047;-91
2021/12/24 03:14:41;;;;;;;39.17;13.98;;;7.90;99.90;;;;;;6220366;22;20031;-91
2021/12/24 03:17:11;;;;;;;46.78;14.95;;;7.90;99.90;;;;;;6212340;22;20015;-90
2021/12/24 03:19:37;;;;;;;48.85;15.70;;;7.90;99.90;;;;;;6213046;22;20016;-90
2021/12/24 03:22:30;;;;;;;50.65;16.33;;;7.90;99.90;;;;;;6237972;22;20099;-90
2021/12/24 03:24:55;;;;;;;54.13;17.65;;;8.00;99.90;;;;;;6211610;22;20012;-90
2021/12/24 03:27:22;;;;;;;50.92;16.30;;;8.00;99.90;;;;;;6212989;22;20037;-91
2021/12/24 03:29:49;;;;;;;48.53;16.77;;;8.00;99.90;;;;;;6211604;22;20011;-91
2021/12/24 03:32:14;;;;;;;49.40;16.50;;;8.10;99.90;;;;;;6238568;22;20078;-88
2021/12/24 03:34:41;;;;;;;41.75;13.55;;;8.10;99.90;;;;;;6212333;22;20446;-90
2021/12/24 03:37:07;;;;;;;44.42;15.32;;;8.20;99.90;;;;;;6236511;22;20636;-90
2021/12/24 03:39:33;;;;;;;50.40;15.77;;;8.20;99.90;;;;;;6211904;22;20074;-90
2021/12/24 03:41:59;;;;;;;45.67;15.38;;;8.20;99.90;;;;;;6236361;22;20020;-91
2021/12/24 03:47:21;;;;;;;38.95;13.93;;;8.20;99.90;;;;;;6216383;22;20506;-91
2021/12/24 03:55:00;;;;;;;42.67;16.25;;;8.30;99.90;;;;;;6237470;22;20020;-90
2021/12/24 03:57:44;;;;;;;40.13;14.63;;;8.40;99.90;;;;;;6237192;22;20452;-91
2021/12/24 04:00:18;;;;;;;52.10;17.05;;;8.40;99.90;;;;;;6238162;22;20058;-91
2021/12/24 04:02:45;;;;;;;45.83;16.17;;;8.40;99.90;;;;;;6236939;22;20047;-90
2021/12/24 04:05:11;;;;;;;54.55;17.67;;;8.40;99.90;;;;;;6236584;22;20057;-91
2021/12/24 04:07:36;;;;;;;63.05;20.52;;;8.40;99.90;;;;;;6243511;22;20015;-91
2021/12/24 04:10:35;;;;;;;60.15;19.05;;;8.40;99.90;;;;;;6219796;22;20012;-90
2021/12/24 04:12:50;;;;;;;62.72;19.27;;;8.40;99.90;;;;;;6243643;22;20020;-90
2021/12/24 04:15:16;;;;;;;63.92;20.05;;;8.40;99.90;;;;;;6242633;22;20546;-91
2021/12/24 04:17:43;;;;;;;63.90;22.45;;;8.40;99.90;;;;;;6212883;22;20473;-90
2021/12/24 04:25:26;;;;;;;68.47;24.13;;;8.50;99.90;;;;;;6236306;22;20038;-91
2021/12/24 04:27:53;;;;;;;77.25;25.85;;;8.60;99.90;;;;;;6237282;22;20015;-91
2021/12/24 04:30:25;;;;;;;79.18;25.83;;;8.60;99.90;;;;;;6238234;22;20451;-91
2021/12/24 04:32:58;;;;;;;73.40;23.73;;;8.50;99.90;;;;;;6236740;22;20020;-90
2021/12/24 04:51:37;;;;;;;71.32;24.15;;;8.50;99.90;;;;;;6236222;22;19916;-89
2021/12/24 05:04:39;;;;;;;88.72;27.20;;;8.50;99.90;;;;;;6237165;22;20340;-89
2021/12/24 05:07:19;;;;;;;85.22;26.88;;;8.50;99.90;;;;;;6210980;22;20024;-90
2021/12/24 05:09:44;;;;;;;74.22;26.45;;;8.60;99.90;;;;;;6218851;22;20085;-90
2021/12/24 05:12:10;;;;;;;84.53;26.33;;;8.60;99.90;;;;;;6218952;22;20016;-90
2021/12/24 05:14:36;;;;;;;83.80;27.70;;;8.60;99.90;;;;;;6219434;22;20094;-90
2021/12/24 05:17:21;;;;;;;79.03;25.17;;;8.50;99.90;;;;;;6210572;22;20337;-90
2021/12/24 05:22:48;;;;;;;68.65;24.63;;;8.50;99.90;;;;;;6121208;23;20025;-90
2021/12/24 05:25:13;;;;;;;68.90;22.90;;;8.50;99.90;;;;;;6091139;23;20165;-90
2021/12/24 05:27:39;;;;;;;70.10;22.60;;;8.60;99.90;;;;;;6089728;23;20038;-90
2021/12/24 05:30:05;;;;;;;63.95;24.33;;;8.60;99.90;;;;;;6114887;23;20072;-90
2021/12/24 05:32:31;;;;;;;74.60;22.98;;;8.60;99.90;;;;;;6089654;23;20025;-90
2021/12/24 05:34:56;;;;;;;82.68;26.33;;;8.60;99.90;;;;;;6091816;23;20453;-89
2021/12/24 05:37:22;;;;;;;83.35;26.80;;;8.50;99.90;;;;;;6116689;23;20025;-89
2021/12/24 05:39:47;;;;;;;77.95;24.88;;;8.50;99.90;;;;;;6091710;23;20217;-91
2021/12/24 05:42:13;;;;;;;87.45;25.88;;;8.60;99.90;;;;;;6091781;23;20109;-90
2021/12/24 05:44:39;;;;;;;78.05;26.15;;;8.60;99.90;;;;;;6092161;23;20081;-90
2021/12/24 05:47:05;;;;;;;79.72;26.80;;;8.60;99.90;;;;;;6092366;23;20018;-91
2021/12/24 05:49:31;;;;;;;82.85;26.00;;;8.60;99.90;;;;;;6099428;23;20018;-90
2021/12/24 05:51:57;;;;;;;83.00;25.63;;;8.60;99.90;;;;;;6093053;23;20017;-90
2021/12/24 05:54:23;;;;;;;68.78;24.83;;;8.60;99.90;;;;;;6091064;23;20024;-90
2021/12/24 05:56:48;;;;;;;79.32;26.05;;;8.70;99.90;;;;;;6152598;22;20368;-90
2021/12/24 05:59:14;;;;;;;75.03;25.40;;;8.60;99.90;;;;;;6211792;22;20018;-90
2021/12/24 06:01:40;;;;;;;72.30;23.80;;;8.60;99.90;;;;;;6238336;22;20074;-90
2021/12/24 06:04:05;;;;;;;72.10;22.35;;;8.60;99.90;;;;;;6239255;22;20019;-89
2021/12/24 06:06:31;;;;;;;53.72;21.27;;;8.60;99.90;;;;;;6213556;22;20070;-91
2021/12/24 06:08:56;;;;;;;58.63;20.70;;;8.70;99.90;;;;;;6213697;22;20023;-91
2021/12/24 06:11:22;;;;;;;55.75;19.52;;;8.60;99.90;;;;;;6213030;22;20530;-91
2021/12/24 06:13:52;;;;;;;57.58;22.73;;;8.60;99.90;;;;;;6239194;22;20015;-89
2021/12/24 06:16:18;;;;;;;57.15;20.50;;;8.50;99.90;;;;;;6211749;22;20008;-91
2021/12/24 06:18:44;;;;;;;57.33;19.50;;;8.60;99.90;;;;;;6211498;22;20020;-91
2021/12/24 06:21:10;;;;;;;50.65;17.80;;;8.60;99.90;;;;;;6214169;22;20022;-90
2021/12/24 06:23:40;;;;;;;52.60;20.08;;;8.60;99.90;;;;;;6238944;22;20024;-89
2021/12/24 06:26:07;;;;;;;52.90;18.60;;;8.60;99.90;;;;;;6238848;22;20077;-90
2021/12/24 06:28:33;;;;;;;58.67;18.40;;;8.60;99.90;;;;;;6213902;22;20161;-90
2021/12/24 06:30:59;;;;;;;54.65;18.15;;;8.60;99.90;;;;;;6213746;22;20982;-90
2021/12/24 06:33:25;;;;;;;53.85;19.17;;;8.60;99.90;;;;;;6213538;22;20578;-90
2021/12/24 06:36:03;;;;;;;53.47;17.65;;;8.50;99.90;;;;;;6245570;22;20012;-93
2021/12/24 07:16:20;;;;;;;;;;;;;;;;;;;;;
2021/12/24 07:19:26;;;;;;;32.03;11.48;;;8.50;99.90;;;;;;5869251;24;20014;-92
2021/12/24 07:22:04;;;;;;;39.58;11.82;;;8.50;99.90;;;;;;5837922;24;20014;-93
2021/12/24 07:24:49;;;;;;;34.65;11.88;;;8.50;99.90;;;;;;5871583;24;20013;-92
2021/12/24 07:27:26;;;;;;;37.05;11.65;;;8.50;99.90;;;;;;5893269;24;20177;-90
2021/12/24 07:29:51;;;;;;;42.08;11.05;;;8.50;99.90;;;;;;5870693;24;20005;-91
2021/12/24 07:32:17;;;;;;;35.90;11.75;;;8.50;99.90;;;;;;5886635;24;20099;-90
2021/12/24 07:34:45;;;;;;;31.88;11.30;;;8.50;99.90;;;;;;5863159;24;20021;-91
2021/12/24 07:37:11;;;;;;;31.38;9.82;;;8.40;99.90;;;;;;5908390;24;20118;-90
2021/12/24 07:40:20;;;;;;;35.85;12.18;;;8.60;99.90;;;;;;5970920;23;20183;-91
2021/12/24 07:42:47;;;;;;;34.67;10.95;;;8.40;99.90;;;;;;6074163;23;20024;-90
2021/12/24 07:45:16;;;;;;;35.50;11.75;;;8.50;99.90;;;;;;6094302;23;20032;-90
2021/12/24 07:48:05;;;;;;;32.85;12.13;;;8.50;99.90;;;;;;6094369;23;20051;-91
2021/12/24 07:52:57;;;;;;;36.15;11.00;;;8.40;99.90;;;;;;6123121;23;20037;-89
2021/12/24 07:55:25;;;;;;;41.35;11.75;;;8.40;99.90;;;;;;6100418;23;20017;-92
2021/12/24 07:57:52;;;;;;;33.17;11.60;;;8.40;99.90;;;;;;6127923;22;20020;-91
2021/12/24 08:00:19;;;;;;;31.63;11.70;;;8.40;99.90;;;;;;6244532;22;20011;-93
2021/12/24 08:02:46;;;;;;;33.97;11.20;;;8.20;99.90;;;;;;6244849;22;20015;-90
2021/12/24 08:05:18;;;;;;;31.67;10.68;;;8.30;99.90;;;;;;6246008;22;20443;-90
2021/12/24 08:07:52;;;;;;;36.05;10.10;;;8.30;99.90;;;;;;6245929;22;20436;-91
2021/12/24 08:10:30;;;;;;;29.65;9.75;;;8.30;99.90;;;;;;6245433;22;20043;-93
2021/12/24 08:13:10;;;;;;;28.23;9.68;;;8.40;99.90;;;;;;6222370;22;20016;-94
2021/12/24 08:15:36;;;;;;;36.05;9.05;;;8.30;99.90;;;;;;6219737;22;20011;-91
2021/12/24 08:18:18;;;;;;;39.53;9.45;;;8.30;99.90;;;;;;6245681;22;20324;-93
2021/12/24 08:20:46;;;;;;;40.17;10.15;;;8.30;99.90;;;;;;6246155;22;20052;-90
2021/12/24 08:23:12;;;;;;;28.13;9.00;;;8.30;99.90;;;;;;6220280;22;20336;-93
2021/12/24 08:25:37;;;;;;;34.70;9.27;;;8.40;99.90;;;;;;6245810;22;20016;-92
2021/12/24 08:28:03;;;;;;;35.15;9.05;;;8.40;99.90;;;;;;6245083;22;20011;-94
2021/12/24 08:30:29;;;;;;;37.65;9.65;;;8.40;99.90;;;;;;6245933;22;20054;-92
2021/12/24 08:33:33;;;;;;;35.88;10.20;;;8.40;99.90;;;;;;6245016;22;20047;-91
2021/12/24 08:36:09;;;;;;;27.95;8.82;;;8.40;99.90;;;;;;6185901;23;20016;-89
2021/12/24 08:38:35;;;;;;;35.05;9.55;;;8.40;99.90;;;;;;6190560;23;20024;-90
2021/12/24 08:41:04;;;;;;;45.80;10.07;;;8.50;99.90;;;;;;6190086;23;20043;-91
2021/12/24 08:43:33;;;;;;;28.92;9.18;;;8.40;99.90;;;;;;6189817;23;20027;-90
2021/12/24 08:45:59;;;;;;;45.83;10.38;;;8.50;99.90;;;;;;6190068;23;20471;-92
2021/12/24 08:48:25;;;;;;;35.53;8.48;;;8.50;99.90;;;;;;6190204;23;20013;-92
2021/12/24 08:50:50;;;;;;;31.50;9.50;;;8.50;99.90;;;;;;6189749;23;20012;-90
2021/12/24 08:53:16;;;;;;;40.05;9.65;;;8.60;99.90;;;;;;6190366;23;20060;-91
2021/12/24 08:55:42;;;;;;;38.20;10.15;;;8.60;99.90;;;;;;6189971;23;20017;-89
2021/12/24 08:58:08;;;;;;;38.45;9.98;;;8.60;99.90;;;;;;6188593;23;20013;-88
2021/12/24 09:00:35;;;;;;;34.83;8.95;;;8.50;99.90;;;;;;6189499;23;20016;-92
2021/12/24 09:04:06;;;;;;;38.55;9.85;;;8.50;99.90;;;;;;6190561;23;20047;-96
2021/12/24 09:06:35;;;;;;;36.15;8.23;;;8.50;99.90;;;;;;6100078;23;20357;-93
2021/12/24 09:09:02;;;;;;;45.85;8.60;;;8.60;99.90;;;;;;6100071;23;20021;-93
2021/12/24 09:11:28;;;;;;;28.27;8.57;;;8.60;99.90;;;;;;6099036;23;20013;-95
2021/12/24 09:13:53;;;;;;;32.47;8.10;;;8.60;99.90;;;;;;6099360;23;20180;-94
2021/12/24 09:16:19;;;;;;;30.60;8.20;;;8.50;99.90;;;;;;6099846;23;20103;-93
2021/12/24 09:18:48;;;;;;;29.33;8.52;;;8.60;99.90;;;;;;6098970;23;20022;-91
2021/12/24 09:21:17;;;;;;;33.63;9.30;;;8.60;99.90;;;;;;6099592;23;20089;-94
2021/12/24 09:23:58;;;;;;;29.48;8.77;;;8.50;99.90;;;;;;6095514;23;20018;-95
2021/12/24 09:26:29;;;;;;;29.30;8.35;;;8.50;99.90;;;;;;6116627;23;20625;-92
2021/12/24 09:28:59;;;;;;;25.23;9.10;;;8.60;99.90;;;;;;6099662;23;20017;-91
2021/12/24 09:31:27;;;;;;;31.05;9.45;;;8.60;99.90;;;;;;6099035;23;20018;-96
2021/12/24 09:33:54;;;;;;;30.88;8.32;;;8.50;99.90;;;;;;6124576;23;20681;-94
2021/12/24 09:36:26;;;;;;;31.60;9.40;;;8.70;99.90;;;;;;6125999;23;20060;-91
2021/12/24 09:38:54;;;;;;;28.98;9.05;;;8.60;99.90;;;;;;6125332;23;20021;-91
2021/12/24 09:41:21;;;;;;;37.67;8.85;;;8.60;99.90;;;;;;6161210;23;20016;-89
2021/12/24 09:43:47;;;;;;;31.00;8.98;;;8.70;99.90;;;;;;6190860;23;20020;-91
2021/12/24 09:46:13;;;;;;;38.00;8.60;;;8.70;99.90;;;;;;6191380;23;20015;-88
2021/12/24 09:48:52;;;;;;;33.88;10.38;;;8.60;99.90;;;;;;6190850;23;20016;-93
2021/12/24 09:51:18;;;;;;;32.83;10.48;;;8.70;99.90;;;;;;6191123;23;20012;-96
2021/12/24 09:53:49;;;;;;;37.30;10.50;;;8.60;99.90;;;;;;6216411;23;20095;-96
2021/12/24 09:56:18;;;;;;;33.33;9.27;;;8.70;99.90;;;;;;6211034;23;20017;-94
2021/12/24 09:58:43;;;;;;;32.60;9.45;;;8.70;99.90;;;;;;6191321;23;20020;-94
2021/12/24 10:01:30;;;;;;;39.03;9.90;;;8.60;99.90;;;;;;6191833;23;20134;-91
2021/12/24 10:04:02;;;;;;;37.78;9.23;;;8.60;99.90;;;;;;6191352;23;20016;-92
2021/12/24 10:06:30;;;;;;;38.28;9.10;;;8.60;99.90;;;;;;6192257;23;20016;-93
2021/12/24 10:09:09;;;;;;;39.38;9.70;;;8.60;99.90;;;;;;6191756;23;20077;-94
2021/12/24 10:11:53;;;;;;;33.40;9.10;;;8.60;99.90;;;;;;6191250;23;20074;-94
2021/12/24 10:14:50;;;;;;;34.30;9.85;;;8.70;99.90;;;;;;6192192;23;20051;-95
2021/12/24 10:17:21;;;;;;;32.90;9.60;;;8.60;99.90;;;;;;6216533;23;20039;-94
2021/12/24 10:20:01;;;;;;;37.33;9.50;;;8.60;99.90;;;;;;6191952;23;20020;-93
2021/12/24 10:22:33;;;;;;;36.15;10.25;;;8.60;99.90;;;;;;6191646;23;20020;-93
2021/12/24 10:25:27;;;;;;;38.08;9.95;;;8.60;99.90;;;;;;6189904;23;20534;-91
2021/12/24 10:28:42;;;;;;;38.85;10.05;;;8.60;99.90;;;;;;6190535;23;20099;-95
2021/12/24 10:31:51;;;;;;;38.75;9.68;;;8.60;99.90;;;;;;6210489;23;20027;-92
2021/12/24 10:34:24;;;;;;;39.53;10.73;;;8.60;99.90;;;;;;6206798;22;20015;-92
2021/12/24 10:36:58;;;;;;;40.30;10.27;;;8.60;99.90;;;;;;6220956;22;20155;-93
2021/12/24 10:39:25;;;;;;;41.60;10.90;;;8.60;99.90;;;;;;6219203;22;20022;-92
2021/12/24 10:41:52;;;;;;;44.30;11.77;;;8.50;99.90;;;;;;6219555;22;20043;-90
2021/12/24 10:44:42;;;;;;;43.83;12.35;;;8.60;99.90;;;;;;6220375;22;20308;-96
2021/12/24 10:47:37;;;;;;;43.55;12.38;;;8.50;99.90;;;;;;6225342;22;20055;-92
2021/12/24 10:52:56;;;;;;;45.33;12.68;;;8.50;99.90;;;;;;6246198;22;20030;-93
2021/12/24 10:55:22;;;;;;;34.90;10.25;;;8.50;99.90;;;;;;6220482;22;20016;-93
2021/12/24 10:57:51;;;;;;;39.60;10.45;;;8.40;99.90;;;;;;6245303;22;20548;-92
2021/12/24 11:00:27;;;;;;;35.95;10.43;;;8.50;99.90;;;;;;6220722;22;20451;-93
2021/12/24 11:03:01;;;;;;;32.08;9.45;;;8.40;99.90;;;;;;6220504;22;20051;-92
2021/12/24 11:05:36;;;;;;;29.42;8.75;;;8.40;99.90;;;;;;6220717;22;20015;-92
2021/12/24 11:08:06;;;;;;;32.35;8.23;;;8.50;99.90;;;;;;6245957;22;20452;-92
2021/12/24 11:10:35;;;;;;;31.10;8.05;;;8.50;99.90;;;;;;6219917;22;20023;-92
2021/12/24 11:13:13;;;;;;;24.95;7.70;;;8.40;99.90;;;;;;6220276;22;20023;-92
2021/12/24 11:15:47;;;;;;;22.20;7.82;;;8.30;99.90;;;;;;6220541;22;20016;-92
2021/12/24 11:18:16;;;;;;;27.08;7.15;;;8.40;99.90;;;;;;6246077;22;20467;-93
2021/12/24 11:20:42;;;;;;;18.38;6.55;;;8.30;99.90;;;;;;6220430;22;20022;-92
2021/12/24 11:23:16;;;;;;;30.42;6.70;;;8.30;99.90;;;;;;6245334;22;20444;-92
2021/12/24 11:25:46;;;;;;;20.95;6.15;;;8.30;99.90;;;;;;6220586;22;20031;-92
2021/12/24 11:28:14;;;;;;;19.13;5.55;;;8.30;99.90;;;;;;6220984;22;20008;-93
2021/12/24 11:30:42;;;;;;;10.38;4.20;;;8.30;99.90;;;;;;6219747;22;20031;-90
2021/12/24 11:33:16;;;;;;;3.45;2.53;;;8.00;99.90;;;;;;6220050;22;20016;-90
2021/12/24 11:35:43;;;;;;;;;;;7.50;99.90;;;;;;6221619;22;20020;-90
2021/12/24 11:38:19;;;;;;;3.92;2.90;;;7.20;99.90;;;;;;6220145;22;19915;-90
2021/12/24 11:40:48;;;;;;;4.35;2.80;;;7.10;99.90;;;;;;6220980;22;20090;-91
2021/12/24 11:43:14;;;;;;;5.45;2.70;;;6.90;99.90;;;;;;6221613;22;20098;-91
2021/12/24 11:45:40;;;;;;;3.67;3.30;;;6.90;99.90;;;;;;6221372;22;20042;-90
2021/12/24 11:48:09;;;;;;;5.38;3.55;;;6.80;99.90;;;;;;6220786;22;20018;-90
2021/12/24 11:50:36;;;;;;;4.82;3.58;;;6.80;99.90;;;;;;6220937;22;20019;-91
2021/12/24 11:53:07;;;;;;;4.30;3.00;;;6.80;99.90;;;;;;6220628;22;20019;-91
2021/12/24 11:55:36;;;;;;;6.50;2.95;;;6.70;99.90;;;;;;6221080;22;20459;-89
2021/12/24 12:01:36;;;;;;;5.80;3.30;;;6.60;99.90;;;;;;6239979;22;20027;-91
2021/12/24 12:04:15;;;;;;;4.18;3.70;;;6.60;99.90;;;;;;6221043;22;20019;-91
2021/12/24 12:08:05;;;;;;;;;;;;;;;;;;;;;
2021/12/24 12:10:51;;;;;;;4.65;4.07;;;6.60;99.90;;;;;;6154035;23;20096;-92
2021/12/24 12:13:36;;;;;;;7.22;3.95;;;6.70;99.90;;;;;;6129753;23;20103;-91
2021/12/24 12:16:23;;;;;;;5.43;3.92;;;6.70;99.90;;;;;;6129819;23;20013;-92
2021/12/24 12:22:45;;;;;;;6.10;4.10;;;6.60;99.90;;;;;;6150343;23;20021;-90
2021/12/24 12:25:34;;;;;;;4.15;3.75;;;6.60;99.90;;;;;;6129455;23;20069;-89
2021/12/24 12:28:03;;;;;;;5.45;4.30;;;6.60;99.90;;;;;;6128995;23;20458;-90
2021/12/24 12:30:39;;;;;;;5.05;4.35;;;6.70;99.90;;;;;;6129022;23;20020;-89
2021/12/24 12:33:10;;;;;;;4.90;4.40;;;6.70;99.90;;;;;;6128452;23;20024;-89
2021/12/24 12:35:37;;;;;;;4.68;4.28;;;6.80;99.90;;;;;;6128697;23;20032;-90
2021/12/24 12:38:26;;;;;;;3.55;3.25;;;6.80;99.90;;;;;;6129179;23;20027;-91
2021/12/24 12:40:52;;;;;;;3.50;3.20;;;6.70;99.90;;;;;;6184700;23;20099;-89
2021/12/24 12:43:19;;;;;;;4.35;3.28;;;6.60;99.90;;;;;;6214725;23;20039;-94
2021/12/24 12:45:47;;;;;;;3.80;3.08;;;6.60;99.90;;;;;;6215327;23;20054;-92
2021/12/24 12:48:22;;;;;;;4.15;3.40;;;6.70;99.90;;;;;;6215702;23;20055;-90
2021/12/24 12:51:00;;;;;;;5.28;4.78;;;6.60;99.90;;;;;;6214160;23;20016;-89
2021/12/24 12:53:34;;;;;;;4.97;4.40;;;6.60;99.90;;;;;;6214979;23;20027;-89
2021/12/24 12:56:26;;;;;;;5.53;4.65;;;6.50;99.90;;;;;;6214832;23;20447;-89
2021/12/24 12:59:07;;;;;;;6.15;4.72;;;6.40;99.90;;;;;;6213885;23;20016;-90
2021/12/24 13:01:48;;;;;;;5.57;4.72;;;6.40;99.90;;;;;;6215173;23;20016;-91
2021/12/24 13:04:15;;;;;;;5.63;5.03;;;6.50;99.90;;;;;;6215572;23;20016;-93
2021/12/24 13:06:43;;;;;;;4.88;4.32;;;6.50;99.90;;;;;;6215438;23;20055;-92
2021/12/24 13:09:12;;;;;;;4.80;4.32;;;6.40;99.90;;;;;;6216922;23;20048;-90
2021/12/24 13:11:44;;;;;;;6.47;4.53;;;6.40;99.90;;;;;;6216698;23;20016;-92
2021/12/24 13:14:12;;;;;;;4.00;3.60;;;6.40;99.90;;;;;;6216827;23;20016;-89
2021/12/24 13:16:52;;;;;;;5.15;3.80;;;6.30;99.90;;;;;;6241696;23;20015;-90
2021/12/24 13:24:53;;;;;;;8.45;5.28;;;6.30;99.90;;;;;;6241929;23;20720;-89
2021/12/24 13:27:24;;;;;;;6.57;5.22;;;6.20;99.90;;;;;;6216606;23;20094;-90
2021/12/24 13:30:06;;;;;;;6.22;4.00;;;6.30;99.90;;;;;;6216292;23;20515;-90
2021/12/24 13:32:55;;;;;;;4.47;3.75;;;6.30;99.90;;;;;;6218624;23;20016;-90
2021/12/24 13:35:24;;;;;;;6.70;5.70;;;6.30;99.90;;;;;;6221420;22;20012;-91
2021/12/24 13:37:51;;;;;;;5.35;4.38;;;6.30;99.90;;;;;;6221593;22;20031;-96
2021/12/24 13:40:20;;;;;;;5.88;5.32;;;6.40;99.90;;;;;;6221872;22;20647;-91
2021/12/24 13:43:04;;;;;;;10.13;5.90;;;6.30;99.90;;;;;;6220969;22;20081;-86
2021/12/24 13:45:34;;;;;;;19.77;10.32;;;6.40;99.90;;;;;;6246498;22;20015;-89
2021/12/24 13:48:08;;;;;;;19.13;9.18;;;6.30;99.90;;;;;;6246887;22;20062;-90
2021/12/24 13:56:34;;;;;;;14.63;8.45;;;6.30;99.90;;;;;;6247221;22;20023;-94
2021/12/24 13:59:00;;;;;;;68.78;45.03;;;6.20;99.90;;;;;;6221404;22;20435;-96
2021/12/24 14:01:28;;;;;;;34.53;31.05;;;6.20;99.90;;;;;;6221698;22;20016;-95
2021/12/24 14:03:55;;;;;;;8.02;6.50;;;6.20;99.90;;;;;;6246521;22;20016;-93
2021/12/24 14:06:30;;;;;;;10.40;6.35;;;6.20;99.90;;;;;;6221892;22;20448;-92
2021/12/24 14:09:11;;;;;;;31.60;28.42;;;6.10;99.90;;;;;;6221575;22;20015;-92
2021/12/24 14:11:37;;;;;;;12.18;9.82;;;6.20;99.90;;;;;;6247148;22;20016;-92
2021/12/24 14:14:09;;;;;;;12.13;10.93;;;6.20;99.90;;;;;;6246858;22;20098;-93
2021/12/24 14:17:33;;;;;;;6.95;4.63;;;6.20;99.90;;;;;;6246754;22;20019;-91
2021/12/24 14:22:11;;;;;;;9.35;6.90;;;6.20;99.90;;;;;;6246693;22;20041;-93
2021/12/24 14:24:49;;;;;;;10.38;6.82;;;6.20;99.90;;;;;;6221751;22;20016;-93
2021/12/24 14:27:17;;;;;;;7.97;5.70;;;6.30;99.90;;;;;;6221572;22;20054;-92
2021/12/24 14:29:45;;;;;;;9.25;6.35;;;6.40;99.90;;;;;;6220683;22;20065;-92
2021/12/24 14:32:26;;;;;;;7.00;5.03;;;6.40;99.90;;;;;;6221224;22;20019;-92
2021/12/24 14:34:54;;;;;;;9.63;6.25;;;6.30;99.90;;;;;;6220049;22;20012;-87
2021/12/24 14:37:29;;;;;;;7.40;5.88;;;6.30;99.90;;;;;;6220632;22;20025;-88
2021/12/24 14:40:07;;;;;;;8.77;6.30;;;6.30;99.90;;;;;;6220595;22;20022;-91
2021/12/24 14:42:35;;;;;;;11.02;7.20;;;6.30;99.90;;;;;;6220846;22;20049;-91
2021/12/24 14:45:35;;;;;;;13.30;8.82;;;6.30;99.90;;;;;;6221411;22;20597;-92
2021/12/24 14:48:24;;;;;;;13.77;8.38;;;6.40;99.90;;;;;;6181414;22;20051;-91
2021/12/24 14:51:03;;;;;;;15.38;7.30;;;6.30;99.90;;;;;;6218898;22;20020;-87
2021/12/24 14:53:36;;;;;;;8.98;6.35;;;6.30;99.90;;;;;;6219621;22;20398;-89
2021/12/24 14:56:20;;;;;;;17.52;9.85;;;6.20;99.90;;;;;;6219460;22;20016;-87
2021/12/24 14:58:58;;;;;;;13.80;7.72;;;6.20;99.90;;;;;;6219380;22;20018;-88
2021/12/24 15:01:32;;;;;;;18.23;9.20;;;6.10;99.90;;;;;;6219002;22;20020;-88
2021/12/24 15:04:04;;;;;;;17.85;8.23;;;6.20;99.90;;;;;;6219924;22;20395;-89
2021/12/24 15:06:36;;;;;;;16.15;9.23;;;6.20;99.90;;;;;;6217974;22;20019;-90
2021/12/24 15:09:28;;;;;;;21.33;10.23;;;6.10;99.90;;;;;;6219448;22;20348;-89
2021/12/24 15:11:55;;;;;;;16.70;10.43;;;6.10;99.90;;;;;;6219469;22;20012;-92
2021/12/24 15:14:26;;;;;;;9.43;7.93;;;6.10;99.90;;;;;;6245324;22;20023;-90
2021/12/24 15:16:55;;;;;;;11.27;7.18;;;6.10;99.90;;;;;;6244943;22;20394;-91
2021/12/24 15:19:21;;;;;;;17.60;12.10;;;6.00;99.90;;;;;;6220172;22;20018;-89
2021/12/24 15:21:48;;;;;;;18.40;13.80;;;6.00;99.90;;;;;;6244820;22;20430;-90
2021/12/24 15:24:16;;;;;;;35.65;30.05;;;6.00;99.90;;;;;;6245386;22;20016;-92
2021/12/24 15:26:43;;;;;;;18.75;14.68;;;6.00;99.90;;;;;;6220218;22;20094;-88
2021/12/24 15:29:08;;;;;;;30.08;26.85;;;6.00;99.90;;;;;;6244662;22;20012;-88
2021/12/24 15:31:35;;;;;;;72.35;63.13;;;6.00;99.90;;;;;;6219243;22;20504;-90
2021/12/24 15:34:03;;;;;;;45.30;38.53;;;5.90;99.90;;;;;;6244642;22;20026;-89
2021/12/24 15:36:29;;;;;;;61.97;47.55;;;5.90;99.90;;;;;;6220015;22;20085;-91
2021/12/24 15:38:55;;;;;;;63.28;49.50;;;5.90;99.90;;;;;;6219987;22;20016;-90
2021/12/24 15:41:21;;;;;;;21.27;11.73;;;5.90;99.90;;;;;;6220252;22;20022;-93
2021/12/24 15:43:48;;;;;;;21.10;12.20;;;5.90;99.90;;;;;;6219144;22;20026;-93
2021/12/24 15:46:15;;;;;;;71.00;59.17;;;5.80;99.90;;;;;;6220063;22;20015;-90
2021/12/24 15:48:41;;;;;;;51.97;39.80;;;5.80;99.90;;;;;;6244442;22;20299;-90
2021/12/24 15:51:07;;;;;;;54.60;48.60;;;5.80;99.90;;;;;;6220978;22;20047;-90